map of OKJ home
OKJ - Airport
Location
City:  Okayama, Okayama, Japan
Name:Okayama Airport
ICAO:RJOB
IATA:OKJ

Details
Type:Airport (Aerodrome, Airfield)
Use:Public/Civil
Latitude:3445'25"N (34.756944)
Longitude:13351'19"E (133.855278)
Datum:WGS 1984
Elevation:806 ft (246 m)
Variation:7.84W (WMM2015 magnetic declination)
-0.07 annual change
Runways:1
Longest:9843 × 150 ft (3000 × 45.5 m), paved

Time
Time Zone:UTC+9
Local Time:

Weather
METAR:RJOB 210900Z 28005KT 250V310 9999 FEW025 05/M04 Q1015
TAF:RJOB 210509Z 2106/2212 26008KT 9999 FEW025

Related Locations
Nearby:
Farthest:SSMT: 12063 mi / 19414 km
Mostardas, RS, BR

Find:

   beyond  
but within

Other Information
Maps:
NOTAMs:
Links:
Sources:

  
  • flag of Japan
  • flag of Okayama
  • flag of Okayama
  

Sectional Chart

Flight Planning
at skyvector.com

Satellite Image

Google Maps Satellite view

 

Copyright © 2004-2019 Karl L. Swartz. All rights reserved.
The Great Circle Mapper name and logo are trademarks of the Great Circle Mapper.
All other trademarks mentioned herein belong to their respective owners.
Please see credits for attibutions and further copyright information.

  Follow gcmap on Facebook Follow gcmap on Twitter Follow gcmap on Google+ GCmap on LinkedIn

hCard Microformat

Geo Microformat